sensor_id;sensor_type;location;lat;lon;timestamp;temperature;humidity
3818;DHT22;1924;48.078;11.516;2023-08-17T00:00:39;20.70;99.90
3818;DHT22;1924;48.078;11.516;2023-08-17T00:03:06;20.60;99.90
3818;DHT22;1924;48.078;11.516;2023-08-17T00:05:33;20.60;99.90
3818;DHT22;1924;48.078;11.516;2023-08-17T00:08:00;20.60;99.90
3818;DHT22;1924;48.078;11.516;2023-08-17T00:10:28;20.60;99.90
3818;DHT22;1924;48.078;11.516;2023-08-17T00:12:56;20.40;99.90
3818;DHT22;1924;48.078;11.516;2023-08-17T00:15:23;20.30;99.90
3818;DHT22;1924;48.078;11.516;2023-08-17T00:17:50;20.40;99.90
3818;DHT22;1924;48.078;11.516;2023-08-17T00:20:17;20.40;99.90
3818;DHT22;1924;48.078;11.516;2023-08-17T00:22:43;20.40;99.90
3818;DHT22;1924;48.078;11.516;2023-08-17T00:25:10;20.50;99.90
3818;DHT22;1924;48.078;11.516;2023-08-17T00:27:37;20.60;99.90
3818;DHT22;1924;48.078;11.516;2023-08-17T00:30:06;20.60;99.90
3818;DHT22;1924;48.078;11.516;2023-08-17T00:32:33;20.50;99.90
3818;DHT22;1924;48.078;11.516;2023-08-17T00:35:00;20.30;99.90
3818;DHT22;1924;48.078;11.516;2023-08-17T00:37:28;20.30;99.90
3818;DHT22;1924;48.078;11.516;2023-08-17T00:39:58;20.30;99.90
3818;DHT22;1924;48.078;11.516;2023-08-17T04:02:12;19.10;99.90
3818;DHT22;1924;48.078;11.516;2023-08-17T04:04:38;19.10;99.90
3818;DHT22;1924;48.078;11.516;2023-08-17T04:07:05;19.00;99.90
3818;DHT22;1924;48.078;11.516;2023-08-17T04:09:32;18.90;99.90
3818;DHT22;1924;48.078;11.516;2023-08-17T04:11:59;18.90;99.90
3818;DHT22;1924;48.078;11.516;2023-08-17T04:14:26;18.90;99.90
3818;DHT22;1924;48.078;11.516;2023-08-17T04:16:53;18.90;99.90
3818;DHT22;1924;48.078;11.516;2023-08-17T04:19:22;18.80;99.90
3818;DHT22;1924;48.078;11.516;2023-08-17T04:21:49;18.80;99.90
3818;DHT22;1924;48.078;11.516;2023-08-17T04:24:15;18.90;99.90
3818;DHT22;1924;48.078;11.516;2023-08-17T04:26:42;19.00;99.90
3818;DHT22;1924;48.078;11.516;2023-08-17T04:29:09;19.10;99.90
3818;DHT22;1924;48.078;11.516;2023-08-17T04:31:36;19.10;99.90
3818;DHT22;1924;48.078;11.516;2023-08-17T04:34:03;19.00;99.90
3818;DHT22;1924;48.078;11.516;2023-08-17T04:36:31;18.90;99.90
3818;DHT22;1924;48.078;11.516;2023-08-17T04:38:58;18.80;99.90
3818;DHT22;1924;48.078;11.516;2023-08-17T04:41:25;18.70;99.90
3818;DHT22;1924;48.078;11.516;2023-08-17T04:43:52;18.70;99.90
3818;DHT22;1924;48.078;11.516;2023-08-17T04:46:18;18.90;99.90
3818;DHT22;1924;48.078;11.516;2023-08-17T04:48:45;19.00;99.90
3818;DHT22;1924;48.078;11.516;2023-08-17T04:51:12;19.10;99.90
3818;DHT22;1924;48.078;11.516;2023-08-17T04:53:41;19.10;99.90
3818;DHT22;1924;48.078;11.516;2023-08-17T04:56:08;19.10;99.90
3818;DHT22;1924;48.078;11.516;2023-08-17T04:58:35;19.20;99.90
3818;DHT22;1924;48.078;11.516;2023-08-17T05:01:01;19.40;99.90
3818;DHT22;1924;48.078;11.516;2023-08-17T05:03:28;19.60;99.90
3818;DHT22;1924;48.078;11.516;2023-08-17T05:05:56;19.70;99.90
3818;DHT22;1924;48.078;11.516;2023-08-17T05:08:23;19.70;99.90
3818;DHT22;1924;48.078;11.516;2023-08-17T05:10:51;19.80;99.90
3818;DHT22;1924;48.078;11.516;2023-08-17T05:13:18;19.90;99.90
3818;DHT22;1924;48.078;11.516;2023-08-17T05:15:45;20.00;99.90
3818;DHT22;1924;48.078;11.516;2023-08-17T05:18:12;20.00;99.90
3818;DHT22;1924;48.078;11.516;2023-08-17T05:20:38;20.20;99.90
3818;DHT22;1924;48.078;11.516;2023-08-17T05:23:04;20.20;99.90
3818;DHT22;1924;48.078;11.516;2023-08-17T05:25:31;20.30;99.90
3818;DHT22;1924;48.078;11.516;2023-08-17T05:27:59;20.20;99.90
3818;DHT22;1924;48.078;11.516;2023-08-17T05:30:26;20.20;99.90
3818;DHT22;1924;48.078;11.516;2023-08-17T05:32:53;20.20;99.90
3818;DHT22;1924;48.078;11.516;2023-08-17T05:35:19;20.30;99.90
3818;DHT22;1924;48.078;11.516;2023-08-17T05:37:46;20.40;99.90
3818;DHT22;1924;48.078;11.516;2023-08-17T05:40:13;20.60;99.90
3818;DHT22;1924;48.078;11.516;2023-08-17T05:42:40;20.80;99.90
3818;DHT22;1924;48.078;11.516;2023-08-17T05:45:09;21.10;99.90
3818;DHT22;1924;48.078;11.516;2023-08-17T05:47:36;21.60;99.90
3818;DHT22;1924;48.078;11.516;2023-08-17T05:50:03;22.20;99.90
3818;DHT22;1924;48.078;11.516;2023-08-17T05:52:30;22.90;99.90
3818;DHT22;1924;48.078;11.516;2023-08-17T05:54:57;23.90;99.90
3818;DHT22;1924;48.078;11.516;2023-08-17T05:57:24;24.90;99.90
3818;DHT22;1924;48.078;11.516;2023-08-17T05:59:51;25.70;99.90
3818;DHT22;1924;48.078;11.516;2023-08-17T06:02:19;26.10;99.90
3818;DHT22;1924;48.078;11.516;2023-08-17T06:04:47;26.10;99.90
3818;DHT22;1924;48.078;11.516;2023-08-17T06:07:14;26.00;99.90
3818;DHT22;1924;48.078;11.516;2023-08-17T06:09:40;25.70;99.90
3818;DHT22;1924;48.078;11.516;2023-08-17T06:12:07;25.40;99.90
3818;DHT22;1924;48.078;11.516;2023-08-17T06:14:34;25.10;99.90
3818;DHT22;1924;48.078;11.516;2023-08-17T06:17:00;24.90;99.90
3818;DHT22;1924;48.078;11.516;2023-08-17T06:19:28;24.80;99.90
3818;DHT22;1924;48.078;11.516;2023-08-17T06:21:55;24.70;99.90
3818;DHT22;1924;48.078;11.516;2023-08-17T06:24:22;24.60;99.90
3818;DHT22;1924;48.078;11.516;2023-08-17T06:26:49;24.50;99.90
3818;DHT22;1924;48.078;11.516;2023-08-17T06:29:15;24.50;99.90
3818;DHT22;1924;48.078;11.516;2023-08-17T06:31:42;24.40;99.90
3818;DHT22;1924;48.078;11.516;2023-08-17T06:34:09;24.50;99.90
3818;DHT22;1924;48.078;11.516;2023-08-17T06:36:38;24.60;99.90
3818;DHT22;1924;48.078;11.516;2023-08-17T06:39:05;24.60;99.90
3818;DHT22;1924;48.078;11.516;2023-08-17T06:41:31;24.60;99.90
3818;DHT22;1924;48.078;11.516;2023-08-17T06:43:58;24.70;99.90
3818;DHT22;1924;48.078;11.516;2023-08-17T06:46:25;24.70;99.90
3818;DHT22;1924;48.078;11.516;2023-08-17T06:48:53;24.80;99.90
3818;DHT22;1924;48.078;11.516;2023-08-17T06:51:20;24.90;99.90
3818;DHT22;1924;48.078;11.516;2023-08-17T06:53:48;24.90;99.90
3818;DHT22;1924;48.078;11.516;2023-08-17T06:56:14;24.90;99.90
3818;DHT22;1924;48.078;11.516;2023-08-17T06:58:41;24.80;99.90
3818;DHT22;1924;48.078;11.516;2023-08-17T07:01:08;24.80;99.90
3818;DHT22;1924;48.078;11.516;2023-08-17T07:03:35;24.80;99.90
3818;DHT22;1924;48.078;11.516;2023-08-17T07:06:01;24.90;99.90
3818;DHT22;1924;48.078;11.516;2023-08-17T07:08:29;24.80;99.90
3818;DHT22;1924;48.078;11.516;2023-08-17T07:10:57;24.80;99.90
3818;DHT22;1924;48.078;11.516;2023-08-17T07:13:24;24.70;99.90
3818;DHT22;1924;48.078;11.516;2023-08-17T07:15:50;24.80;99.90
3818;DHT22;1924;48.078;11.516;2023-08-17T07:18:17;24.80;99.90
3818;DHT22;1924;48.078;11.516;2023-08-17T07:20:44;24.90;99.90
3818;DHT22;1924;48.078;11.516;2023-08-17T07:23:11;25.10;99.90
3818;DHT22;1924;48.078;11.516;2023-08-17T07:25:37;25.10;99.90
3818;DHT22;1924;48.078;11.516;2023-08-17T07:28:06;25.20;99.90
3818;DHT22;1924;48.078;11.516;2023-08-17T07:30:32;25.20;99.90
3818;DHT22;1924;48.078;11.516;2023-08-17T07:32:59;25.20;99.90
3818;DHT22;1924;48.078;11.516;2023-08-17T07:35:26;25.30;99.90
3818;DHT22;1924;48.078;11.516;2023-08-17T07:37:53;25.30;99.90
3818;DHT22;1924;48.078;11.516;2023-08-17T07:40:20;25.30;99.90
3818;DHT22;1924;48.078;11.516;2023-08-17T07:42:47;25.40;99.90
3818;DHT22;1924;48.078;11.516;2023-08-17T07:45:15;25.40;99.90
3818;DHT22;1924;48.078;11.516;2023-08-17T07:47:42;25.40;99.90
3818;DHT22;1924;48.078;11.516;2023-08-17T07:50:09;25.40;99.90
3818;DHT22;1924;48.078;11.516;2023-08-17T07:52:35;25.40;99.90
3818;DHT22;1924;48.078;11.516;2023-08-17T07:55:02;25.40;99.90
3818;DHT22;1924;48.078;11.516;2023-08-17T07:57:30;25.40;99.90
3818;DHT22;1924;48.078;11.516;2023-08-17T07:59:57;25.30;99.90
3818;DHT22;1924;48.078;11.516;2023-08-17T08:02:25;25.30;99.90
3818;DHT22;1924;48.078;11.516;2023-08-17T08:04:52;25.30;99.90
3818;DHT22;1924;48.078;11.516;2023-08-17T08:07:18;25.40;99.90
3818;DHT22;1924;48.078;11.516;2023-08-17T08:09:45;25.50;99.90
3818;DHT22;1924;48.078;11.516;2023-08-17T08:12:12;25.50;99.90
3818;DHT22;1924;48.078;11.516;2023-08-17T08:14:39;25.60;99.90
3818;DHT22;1924;48.078;11.516;2023-08-17T08:17:05;25.50;98.50
3818;DHT22;1924;48.078;11.516;2023-08-17T08:19:34;25.60;99.40
3818;DHT22;1924;48.078;11.516;2023-08-17T08:22:01;25.70;99.40
3818;DHT22;1924;48.078;11.516;2023-08-17T08:24:28;25.70;99.80
3818;DHT22;1924;48.078;11.516;2023-08-17T08:26:59;25.70;99.70
3818;DHT22;1924;48.078;11.516;2023-08-17T08:29:26;25.80;99.30
3818;DHT22;1924;48.078;11.516;2023-08-17T08:31:53;25.80;98.90
3818;DHT22;1924;48.078;11.516;2023-08-17T08:34:19;25.80;98.70
3818;DHT22;1924;48.078;11.516;2023-08-17T08:36:47;25.80;99.20
3818;DHT22;1924;48.078;11.516;2023-08-17T08:39:14;25.80;98.60
3818;DHT22;1924;48.078;11.516;2023-08-17T08:41:41;25.80;98.40
3818;DHT22;1924;48.078;11.516;2023-08-17T08:44:08;25.90;98.70
3818;DHT22;1924;48.078;11.516;2023-08-17T08:46:38;25.90;99.30
3818;DHT22;1924;48.078;11.516;2023-08-17T08:49:06;25.90;99.10
3818;DHT22;1924;48.078;11.516;2023-08-17T08:51:39;25.90;98.20
3818;DHT22;1924;48.078;11.516;2023-08-17T08:54:12;25.90;98.70
3818;DHT22;1924;48.078;11.516;2023-08-17T08:56:42;25.90;98.50
3818;DHT22;1924;48.078;11.516;2023-08-17T08:59:11;25.90;99.10
3818;DHT22;1924;48.078;11.516;2023-08-17T09:01:38;25.90;98.90
3818;DHT22;1924;48.078;11.516;2023-08-17T09:04:05;26.00;98.60
3818;DHT22;1924;48.078;11.516;2023-08-17T09:06:32;26.00;98.10
3818;DHT22;1924;48.078;11.516;2023-08-17T09:09:00;25.90;97.90
3818;DHT22;1924;48.078;11.516;2023-08-17T09:11:29;26.10;97.20
3818;DHT22;1924;48.078;11.516;2023-08-17T09:13:56;26.10;97.80
3818;DHT22;1924;48.078;11.516;2023-08-17T09:16:23;26.20;98.10
3818;DHT22;1924;48.078;11.516;2023-08-17T09:18:52;26.20;96.50
3818;DHT22;1924;48.078;11.516;2023-08-17T09:21:22;26.20;95.90
3818;DHT22;1924;48.078;11.516;2023-08-17T09:23:53;26.10;95.90
3818;DHT22;1924;48.078;11.516;2023-08-17T09:26:21;26.10;95.60
3818;DHT22;1924;48.078;11.516;2023-08-17T09:28:50;26.10;95.60
3818;DHT22;1924;48.078;11.516;2023-08-17T09:31:20;26.20;95.30
3818;DHT22;1924;48.078;11.516;2023-08-17T09:33:49;26.30;95.30
3818;DHT22;1924;48.078;11.516;2023-08-17T09:36:20;26.30;95.50
3818;DHT22;1924;48.078;11.516;2023-08-17T09:38:47;26.30;95.40
3818;DHT22;1924;48.078;11.516;2023-08-17T09:41:14;26.40;95.90
3818;DHT22;1924;48.078;11.516;2023-08-17T09:43:42;26.50;96.00
3818;DHT22;1924;48.078;11.516;2023-08-17T09:46:10;26.60;96.20
3818;DHT22;1924;48.078;11.516;2023-08-17T09:48:37;26.60;95.60
3818;DHT22;1924;48.078;11.516;2023-08-17T09:51:06;26.70;96.00
3818;DHT22;1924;48.078;11.516;2023-08-17T09:53:35;26.80;95.50
3818;DHT22;1924;48.078;11.516;2023-08-17T09:56:05;26.80;95.40
3818;DHT22;1924;48.078;11.516;2023-08-17T09:58:32;26.80;94.70
3818;DHT22;1924;48.078;11.516;2023-08-17T10:01:03;27.00;95.20
3818;DHT22;1924;48.078;11.516;2023-08-17T10:03:33;27.00;94.90
3818;DHT22;1924;48.078;11.516;2023-08-17T10:06:05;27.00;94.00
3818;DHT22;1924;48.078;11.516;2023-08-17T10:08:33;27.10;93.80
3818;DHT22;1924;48.078;11.516;2023-08-17T10:11:02;27.00;93.00
3818;DHT22;1924;48.078;11.516;2023-08-17T10:13:35;27.00;92.90
3818;DHT22;1924;48.078;11.516;2023-08-17T10:16:03;27.10;93.80
3818;DHT22;1924;48.078;11.516;2023-08-17T10:18:41;27.20;95.90
3818;DHT22;1924;48.078;11.516;2023-08-17T10:21:17;27.30;97.90
3818;DHT22;1924;48.078;11.516;2023-08-17T10:23:46;27.30;96.20
3818;DHT22;1924;48.078;11.516;2023-08-17T10:26:12;27.20;95.20
3818;DHT22;1924;48.078;11.516;2023-08-17T10:28:39;27.20;95.80
3818;DHT22;1924;48.078;11.516;2023-08-17T10:31:07;27.20;96.20
3818;DHT22;1924;48.078;11.516;2023-08-17T10:33:37;27.40;95.50
3818;DHT22;1924;48.078;11.516;2023-08-17T10:36:07;27.50;93.30
3818;DHT22;1924;48.078;11.516;2023-08-17T10:38:34;27.70;93.80
3818;DHT22;1924;48.078;11.516;2023-08-17T10:41:18;27.70;91.80
3818;DHT22;1924;48.078;11.516;2023-08-17T10:43:53;27.60;90.80
3818;DHT22;1924;48.078;11.516;2023-08-17T10:46:20;27.50;90.80
3818;DHT22;1924;48.078;11.516;2023-08-17T10:48:49;27.50;93.20
3818;DHT22;1924;48.078;11.516;2023-08-17T10:51:15;27.60;95.00
3818;DHT22;1924;48.078;11.516;2023-08-17T10:53:52;27.80;95.60
3818;DHT22;1924;48.078;11.516;2023-08-17T10:56:19;28.00;96.00
3818;DHT22;1924;48.078;11.516;2023-08-17T10:58:46;28.10;96.10
3818;DHT22;1924;48.078;11.516;2023-08-17T11:01:31;28.10;95.00
3818;DHT22;1924;48.078;11.516;2023-08-17T11:04:16;28.10;94.80
3818;DHT22;1924;48.078;11.516;2023-08-17T11:06:43;28.10;95.80
3818;DHT22;1924;48.078;11.516;2023-08-17T11:09:10;28.30;96.20
3818;DHT22;1924;48.078;11.516;2023-08-17T11:11:38;28.50;92.00
3818;DHT22;1924;48.078;11.516;2023-08-17T11:14:05;28.40;92.80
3818;DHT22;1924;48.078;11.516;2023-08-17T11:16:31;28.30;90.80
3818;DHT22;1924;48.078;11.516;2023-08-17T11:19:00;28.40;93.00
3818;DHT22;1924;48.078;11.516;2023-08-17T11:21:28;28.60;90.40
3818;DHT22;1924;48.078;11.516;2023-08-17T11:23:56;28.70;90.00
3818;DHT22;1924;48.078;11.516;2023-08-17T11:26:24;28.90;89.70
3818;DHT22;1924;48.078;11.516;2023-08-17T11:28:51;28.80;87.40
3818;DHT22;1924;48.078;11.516;2023-08-17T11:31:18;28.90;88.10
3818;DHT22;1924;48.078;11.516;2023-08-17T11:33:45;28.80;86.00
3818;DHT22;1924;48.078;11.516;2023-08-17T11:36:12;28.60;86.30
3818;DHT22;1924;48.078;11.516;2023-08-17T11:38:43;28.50;86.10
3818;DHT22;1924;48.078;11.516;2023-08-17T11:41:10;28.70;86.50
3818;DHT22;1924;48.078;11.516;2023-08-17T11:43:37;29.00;85.90
3818;DHT22;1924;48.078;11.516;2023-08-17T11:46:04;29.20;89.50
3818;DHT22;1924;48.078;11.516;2023-08-17T11:48:31;29.50;86.00
3818;DHT22;1924;48.078;11.516;2023-08-17T11:50:58;29.60;89.40
3818;DHT22;1924;48.078;11.516;2023-08-17T11:53:24;29.80;88.80
3818;DHT22;1924;48.078;11.516;2023-08-17T11:55:53;29.90;88.20
3818;DHT22;1924;48.078;11.516;2023-08-17T11:58:36;30.00;82.10
3818;DHT22;1924;48.078;11.516;2023-08-17T12:01:02;29.90;83.00
3818;DHT22;1924;48.078;11.516;2023-08-17T12:03:35;29.80;80.20
3818;DHT22;1924;48.078;11.516;2023-08-17T12:06:01;29.80;88.40
3818;DHT22;1924;48.078;11.516;2023-08-17T12:08:29;30.00;82.40
3818;DHT22;1924;48.078;11.516;2023-08-17T12:10:57;29.90;75.50
3818;DHT22;1924;48.078;11.516;2023-08-17T12:13:30;29.70;76.20
3818;DHT22;1924;48.078;11.516;2023-08-17T12:15:57;29.50;77.60
3818;DHT22;1924;48.078;11.516;2023-08-17T12:18:25;29.60;72.50
3818;DHT22;1924;48.078;11.516;2023-08-17T12:20:53;29.80;79.60
3818;DHT22;1924;48.078;11.516;2023-08-17T12:23:20;30.00;75.50
3818;DHT22;1924;48.078;11.516;2023-08-17T12:25:52;30.20;73.70
3818;DHT22;1924;48.078;11.516;2023-08-17T12:28:20;30.20;74.40
3818;DHT22;1924;48.078;11.516;2023-08-17T12:30:47;30.00;75.50
3818;DHT22;1924;48.078;11.516;2023-08-17T12:33:13;30.10;76.80
3818;DHT22;1924;48.078;11.516;2023-08-17T12:35:40;30.10;75.00
3818;DHT22;1924;48.078;11.516;2023-08-17T12:38:07;30.10;79.20
3818;DHT22;1924;48.078;11.516;2023-08-17T12:40:34;30.10;80.50
3818;DHT22;1924;48.078;11.516;2023-08-17T12:43:00;30.10;85.40
3818;DHT22;1924;48.078;11.516;2023-08-17T12:45:29;30.10;81.90
3818;DHT22;1924;48.078;11.516;2023-08-17T12:47:56;29.90;81.30
3818;DHT22;1924;48.078;11.516;2023-08-17T12:50:25;29.90;80.50
3818;DHT22;1924;48.078;11.516;2023-08-17T12:52:52;29.80;81.60
3818;DHT22;1924;48.078;11.516;2023-08-17T12:55:19;29.90;82.50
3818;DHT22;1924;48.078;11.516;2023-08-17T12:57:46;30.00;83.60
3818;DHT22;1924;48.078;11.516;2023-08-17T13:00:14;30.20;83.60
3818;DHT22;1924;48.078;11.516;2023-08-17T13:02:44;30.10;83.70
3818;DHT22;1924;48.078;11.516;2023-08-17T13:05:17;29.90;81.50
3818;DHT22;1924;48.078;11.516;2023-08-17T13:07:47;29.80;82.00
3818;DHT22;1924;48.078;11.516;2023-08-17T13:10:14;29.70;82.10
3818;DHT22;1924;48.078;11.516;2023-08-17T13:12:41;29.80;80.50
3818;DHT22;1924;48.078;11.516;2023-08-17T13:15:08;29.90;80.00
3818;DHT22;1924;48.078;11.516;2023-08-17T13:17:35;29.70;79.80
3818;DHT22;1924;48.078;11.516;2023-08-17T13:20:04;29.70;79.70
3818;DHT22;1924;48.078;11.516;2023-08-17T13:22:32;29.90;79.40
3818;DHT22;1924;48.078;11.516;2023-08-17T13:25:02;29.80;78.30
3818;DHT22;1924;48.078;11.516;2023-08-17T13:27:28;29.80;76.60
3818;DHT22;1924;48.078;11.516;2023-08-17T13:29:55;29.60;77.00
3818;DHT22;1924;48.078;11.516;2023-08-17T13:32:24;29.40;77.10
3818;DHT22;1924;48.078;11.516;2023-08-17T13:34:50;29.50;77.80
3818;DHT22;1924;48.078;11.516;2023-08-17T13:37:19;29.00;77.50
3818;DHT22;1924;48.078;11.516;2023-08-17T13:39:46;28.70;78.20
3818;DHT22;1924;48.078;11.516;2023-08-17T13:42:13;28.50;77.30
3818;DHT22;1924;48.078;11.516;2023-08-17T13:44:40;28.30;75.50
3818;DHT22;1924;48.078;11.516;2023-08-17T13:47:09;28.30;78.30
3818;DHT22;1924;48.078;11.516;2023-08-17T13:49:36;28.20;79.30
3818;DHT22;1924;48.078;11.516;2023-08-17T13:52:03;28.00;80.60
3818;DHT22;1924;48.078;11.516;2023-08-17T13:54:32;28.00;80.60
3818;DHT22;1924;48.078;11.516;2023-08-17T13:56:58;28.00;81.10
3818;DHT22;1924;48.078;11.516;2023-08-17T13:59:28;27.90;80.70
3818;DHT22;1924;48.078;11.516;2023-08-17T14:01:56;27.90;80.50
3818;DHT22;1924;48.078;11.516;2023-08-17T14:04:23;27.90;80.30
3818;DHT22;1924;48.078;11.516;2023-08-17T14:06:49;27.90;80.60
3818;DHT22;1924;48.078;11.516;2023-08-17T14:09:17;27.80;80.90
3818;DHT22;1924;48.078;11.516;2023-08-17T14:11:46;27.80;81.50
3818;DHT22;1924;48.078;11.516;2023-08-17T14:14:12;27.80;81.20
3818;DHT22;1924;48.078;11.516;2023-08-17T14:16:40;27.70;81.90
3818;DHT22;1924;48.078;11.516;2023-08-17T14:19:06;27.80;81.60
3818;DHT22;1924;48.078;11.516;2023-08-17T14:21:33;27.70;80.00
3818;DHT22;1924;48.078;11.516;2023-08-17T14:24:01;27.80;80.80
3818;DHT22;1924;48.078;11.516;2023-08-17T14:26:27;27.70;79.60
3818;DHT22;1924;48.078;11.516;2023-08-17T14:28:56;27.80;79.90
3818;DHT22;1924;48.078;11.516;2023-08-17T14:31:23;27.90;80.20
3818;DHT22;1924;48.078;11.516;2023-08-17T14:33:52;27.80;79.50
3818;DHT22;1924;48.078;11.516;2023-08-17T14:36:19;28.00;80.00
3818;DHT22;1924;48.078;11.516;2023-08-17T14:38:45;28.20;77.30
3818;DHT22;1924;48.078;11.516;2023-08-17T14:41:12;28.40;77.20
3818;DHT22;1924;48.078;11.516;2023-08-17T14:43:39;28.50;77.10
3818;DHT22;1924;48.078;11.516;2023-08-17T14:46:07;28.70;78.30
3818;DHT22;1924;48.078;11.516;2023-08-17T14:48:34;28.80;77.70
3818;DHT22;1924;48.078;11.516;2023-08-17T14:51:01;28.60;76.40
3818;DHT22;1924;48.078;11.516;2023-08-17T14:53:27;28.60;76.50
3818;DHT22;1924;48.078;11.516;2023-08-17T14:55:54;28.70;78.30
3818;DHT22;1924;48.078;11.516;2023-08-17T14:58:21;28.70;76.90
3818;DHT22;1924;48.078;11.516;2023-08-17T15:00:48;28.70;74.40
3818;DHT22;1924;48.078;11.516;2023-08-17T15:03:16;28.90;72.70
3818;DHT22;1924;48.078;11.516;2023-08-17T15:05:43;28.80;73.40
3818;DHT22;1924;48.078;11.516;2023-08-17T15:08:09;28.80;74.90
3818;DHT22;1924;48.078;11.516;2023-08-17T15:10:36;28.70;73.00
3818;DHT22;1924;48.078;11.516;2023-08-17T15:13:03;28.60;72.30
3818;DHT22;1924;48.078;11.516;2023-08-17T15:15:30;28.40;72.90
3818;DHT22;1924;48.078;11.516;2023-08-17T15:17:56;28.30;72.40
3818;DHT22;1924;48.078;11.516;2023-08-17T15:20:25;28.30;73.80
3818;DHT22;1924;48.078;11.516;2023-08-17T15:22:52;28.30;75.50
3818;DHT22;1924;48.078;11.516;2023-08-17T15:25:19;28.20;77.30
3818;DHT22;1924;48.078;11.516;2023-08-17T15:27:45;28.10;78.60
3818;DHT22;1924;48.078;11.516;2023-08-17T15:30:12;28.10;78.50
3818;DHT22;1924;48.078;11.516;2023-08-17T15:32:39;28.10;78.30
3818;DHT22;1924;48.078;11.516;2023-08-17T15:35:07;28.00;79.10
3818;DHT22;1924;48.078;11.516;2023-08-17T15:37:36;28.00;78.90
3818;DHT22;1924;48.078;11.516;2023-08-17T15:40:03;28.00;79.10
3818;DHT22;1924;48.078;11.516;2023-08-17T15:42:30;27.90;79.40
3818;DHT22;1924;48.078;11.516;2023-08-17T15:44:57;27.90;79.50
3818;DHT22;1924;48.078;11.516;2023-08-17T15:47:23;27.80;80.00
3818;DHT22;1924;48.078;11.516;2023-08-17T15:49:50;27.80;80.20
3818;DHT22;1924;48.078;11.516;2023-08-17T15:52:17;27.80;80.50
3818;DHT22;1924;48.078;11.516;2023-08-17T15:54:45;27.70;81.70
3818;DHT22;1924;48.078;11.516;2023-08-17T15:57:12;27.70;80.90
3818;DHT22;1924;48.078;11.516;2023-08-17T15:59:39;27.70;81.40
3818;DHT22;1924;48.078;11.516;2023-08-17T16:02:06;27.60;81.90
3818;DHT22;1924;48.078;11.516;2023-08-17T16:04:32;27.60;82.50
3818;DHT22;1924;48.078;11.516;2023-08-17T16:06:59;27.50;83.40
3818;DHT22;1924;48.078;11.516;2023-08-17T16:09:26;27.50;84.80
3818;DHT22;1924;48.078;11.516;2023-08-17T16:11:54;27.40;85.40
3818;DHT22;1924;48.078;11.516;2023-08-17T16:14:21;27.40;86.40
3818;DHT22;1924;48.078;11.516;2023-08-17T16:16:48;27.30;86.90
3818;DHT22;1924;48.078;11.516;2023-08-17T16:19:15;27.30;88.00
3818;DHT22;1924;48.078;11.516;2023-08-17T16:21:42;27.20;90.20
3818;DHT22;1924;48.078;11.516;2023-08-17T16:24:11;27.20;88.30
3818;DHT22;1924;48.078;11.516;2023-08-17T16:26:38;27.00;84.10
3818;DHT22;1924;48.078;11.516;2023-08-17T16:29:07;26.80;82.80
3818;DHT22;1924;48.078;11.516;2023-08-17T16:31:34;26.40;81.30
3818;DHT22;1924;48.078;11.516;2023-08-17T16:34:01;26.10;84.00
3818;DHT22;1924;48.078;11.516;2023-08-17T16:36:28;25.80;83.50
3818;DHT22;1924;48.078;11.516;2023-08-17T16:38:54;25.70;84.50
3818;DHT22;1924;48.078;11.516;2023-08-17T16:41:21;25.50;85.60
3818;DHT22;1924;48.078;11.516;2023-08-17T16:43:48;25.30;87.10
3818;DHT22;1924;48.078;11.516;2023-08-17T16:46:16;25.00;88.20
3818;DHT22;1924;48.078;11.516;2023-08-17T16:48:44;25.00;89.30
3818;DHT22;1924;48.078;11.516;2023-08-17T16:51:11;24.80;89.80
3818;DHT22;1924;48.078;11.516;2023-08-17T16:53:37;24.70;91.60
3818;DHT22;1924;48.078;11.516;2023-08-17T16:56:05;24.40;94.30
3818;DHT22;1924;48.078;11.516;2023-08-17T16:58:31;24.10;96.80
3818;DHT22;1924;48.078;11.516;2023-08-17T17:00:58;23.70;97.90
3818;DHT22;1924;48.078;11.516;2023-08-17T17:03:26;23.40;99.60
3818;DHT22;1924;48.078;11.516;2023-08-17T17:05:53;23.10;99.50
3818;DHT22;1924;48.078;11.516;2023-08-17T17:08:20;22.70;99.90
3818;DHT22;1924;48.078;11.516;2023-08-17T17:10:46;22.30;99.90
3818;DHT22;1924;48.078;11.516;2023-08-17T17:13:13;22.10;99.90
3818;DHT22;1924;48.078;11.516;2023-08-17T17:15:40;21.90;99.90
3818;DHT22;1924;48.078;11.516;2023-08-17T17:18:07;21.70;99.90
3818;DHT22;1924;48.078;11.516;2023-08-17T17:20:36;21.60;99.90
3818;DHT22;1924;48.078;11.516;2023-08-17T17:23:03;21.30;99.90
3818;DHT22;1924;48.078;11.516;2023-08-17T17:25:30;21.00;99.90
3818;DHT22;1924;48.078;11.516;2023-08-17T17:27:56;21.00;99.90
3818;DHT22;1924;48.078;11.516;2023-08-17T17:30:23;21.10;99.90
3818;DHT22;1924;48.078;11.516;2023-08-17T17:32:50;21.10;99.90
3818;DHT22;1924;48.078;11.516;2023-08-17T17:35:17;21.10;99.90
3818;DHT22;1924;48.078;11.516;2023-08-17T17:37:45;20.90;99.90
3818;DHT22;1924;48.078;11.516;2023-08-17T17:40:12;20.70;99.90
3818;DHT22;1924;48.078;11.516;2023-08-17T17:42:38;20.70;99.90
3818;DHT22;1924;48.078;11.516;2023-08-17T17:45:06;20.60;99.90
3818;DHT22;1924;48.078;11.516;2023-08-17T17:47:33;20.60;99.90
3818;DHT22;1924;48.078;11.516;2023-08-17T17:50:00;20.60;99.90
3818;DHT22;1924;48.078;11.516;2023-08-17T17:52:27;20.60;99.90
3818;DHT22;1924;48.078;11.516;2023-08-17T17:54:55;20.60;99.90
3818;DHT22;1924;48.078;11.516;2023-08-17T17:57:22;20.50;99.90
3818;DHT22;1924;48.078;11.516;2023-08-17T17:59:49;20.60;99.90
3818;DHT22;1924;48.078;11.516;2023-08-17T18:02:16;20.60;99.90
3818;DHT22;1924;48.078;11.516;2023-08-17T18:04:43;20.60;99.90
3818;DHT22;1924;48.078;11.516;2023-08-17T18:07:10;20.60;99.90
3818;DHT22;1924;48.078;11.516;2023-08-17T18:09:37;20.50;99.90
3818;DHT22;1924;48.078;11.516;2023-08-17T18:12:06;20.50;99.90
3818;DHT22;1924;48.078;11.516;2023-08-17T18:14:33;20.50;99.90
3818;DHT22;1924;48.078;11.516;2023-08-17T18:17:12;20.60;99.90
3818;DHT22;1924;48.078;11.516;2023-08-17T18:19:39;20.60;99.90
3818;DHT22;1924;48.078;11.516;2023-08-17T18:22:05;20.60;99.90
3818;DHT22;1924;48.078;11.516;2023-08-17T18:24:32;20.50;99.90
3818;DHT22;1924;48.078;11.516;2023-08-17T18:26:59;20.50;99.90
3818;DHT22;1924;48.078;11.516;2023-08-17T18:29:27;20.40;99.90
3818;DHT22;1924;48.078;11.516;2023-08-17T18:31:54;20.40;99.90
3818;DHT22;1924;48.078;11.516;2023-08-17T18:34:21;20.40;99.90
3818;DHT22;1924;48.078;11.516;2023-08-17T18:36:48;20.30;99.90
3818;DHT22;1924;48.078;11.516;2023-08-17T18:39:15;20.30;99.90
3818;DHT22;1924;48.078;11.516;2023-08-17T18:41:43;20.20;99.90
3818;DHT22;1924;48.078;11.516;2023-08-17T18:44:09;20.00;99.90
3818;DHT22;1924;48.078;11.516;2023-08-17T18:46:37;19.60;99.90
3818;DHT22;1924;48.078;11.516;2023-08-17T18:49:04;19.30;99.90
3818;DHT22;1924;48.078;11.516;2023-08-17T18:51:31;19.30;99.90
3818;DHT22;1924;48.078;11.516;2023-08-17T18:53:58;19.30;99.90
3818;DHT22;1924;48.078;11.516;2023-08-17T18:56:25;19.40;99.90
3818;DHT22;1924;48.078;11.516;2023-08-17T18:58:52;19.60;99.90
3818;DHT22;1924;48.078;11.516;2023-08-17T19:01:20;19.80;99.90
3818;DHT22;1924;48.078;11.516;2023-08-17T19:03:48;20.00;99.90
3818;DHT22;1924;48.078;11.516;2023-08-17T19:06:15;20.20;99.90